Airfield :







YOU CAN JOIN US ON...

 
LOGIN :

Register | Disclaimer

   EN    FR    IT 

 









Legend :    VFR   Marginal VFR   IFR   Intensive IFR   Very Intensive IFR
Visi :
Ceiling :
>= 8 km
>= 3000ft
5 to 8 km
1000 to 3000 ft
1500m to 5 km
500 to 1000 ft
800 to 1500m
200 to 500 ft
< 800m
< 200 ft
Symbols :   Thunderstorms  Fog  Heavy snow  Heavy precipitations  Wind > 20 kt






- Airport Elevation : 522 ft
- IATA code : YBG


CYBG - CFB Bagotville

CURRENT METAR :
  • 272100Z 28009KT 10SM -SHSN OVC043 M03/M07 A3017 RMK SC8 PCPN VRY LGT SLP227

EXPIRED METARs :
  • 272000Z 29007KT 10SM -SHSN OVC042 M02/M07 A3016 RMK SC8 SLP224
  • 271900Z 29009KT 12SM -SHSN BKN024 OVC037 M02/M07 A3016 RMK SC5SC3 SLP222
  • 271800Z 32007KT 10SM -SHSN BKN024 OVC040 M02/M07 A3016 RMK SC6SC2 SLP224

TAF TAF CYBG
Valid from the 27 at 21:00 until the 28 at 18:00 UTC


272030Z 2721/2818 29007KT P6SM SCT040 BKN220
TEMPO 2721/2724 P6SM -SHSN OVC040
FM280000 VRB03KT P6SM FEW040 SCT220
FM280900 VRB03KT P6SM SCT050 BKN190
FM281300 10005KT P6SM BKN050 OVC140 RMK NXT FCST BY 280000Z
CZUL FIR / North America



MET'MAP, your aeronautical weather chart ! - Copyright ORBIFLY December 2007 - Disclaimer

ORBIFLY MET'MAP TEAM :

Programming & Development : Alexandra Zaïnal
Concept & original design : Baudouin d'Aumeries
Assistance for programming : Marc-Olivier Méhu
Technical & hardware support : Manuel Goepfert

Contact : metmap@orbifly.com




SOURCES & CREDITS :

   NOAA